Kennebunkport, ME

5:06 PM EST on December 19, 2014 (GMT -0500)
Seaspray | Change Station
CLOSE
Current Station
Personal Weather Station
Location: Biddeford, ME
Elevation: 20 ft
Nearby Weather Stations

Elev 20 ft 43.41 °N, 70.38 °W | Updated 51 seconds ago

Clear
Clear
33.4 °F
Feels Like 30 °F
N
4.0
Wind Variable Wind from WNW
Gusts 5.0 mph

Today
High -- | Low -- °F
--% Chance of Precip.
Yesterday
High -- | Low -- °F
Precip. -- in
7:10 AM 4:07 PM
Waning Crescent, 6% visible
Pressure 29.99 in
Visibility 10.0 miles
Clouds Clear
Windchill 30 °F
Dew Point 24 °F
Humidity 68%
Rainfall 0.00 in
Snow Depth Not available.
UV 0 out of 12
Pollen .10 out of 12
Air Quality Not available.
Flu Activity Not available.
METAR KSFM 192155Z AUTO 32003KT 10SM CLR 00/M07 A2999 RMK AO1

More Conditions Fewer Conditions

Pressure 29.99 in
Visibility 10.0 miles
Clouds Clear
Windchill 30 °F
Dew Point 24 °F
Humidity 68%
Rainfall 0.00 in
Snow Depth Not available.
UV 0 out of 12
Pollen .10 out of 12
Air Quality Not available.
Flu Activity Not available.
METAR KSFM 192155Z AUTO 32003KT 10SM CLR 00/M07 A2999 RMK AO1

More Conditions Fewer Conditions

10-Day Weather Forecast

Almanac

Astronomy

Dec. 19, 2014 Rise Set
Actual Time
Civil Twilight
Nautical Twilight
Astronomical Twilight
Moon
Length of Visible Light
Length of Day
Tomorrow will be .
, % of the Moon is Illuminated

Today's Extremes

State Highs State Lows

Community

WunderPhotos

Upload Photos

1,779,061 photos uploaded!

WunderBlogs® & News

Nearby

Air Quality

  Air Quality AQ Index Pollutant
Not available.

Snow Depth

Station Depth Elevation

Earthquake Activity

City Distance Mag. Time & Date
Minimum magnitude displayed is 2.5.

Coastal Water Temperatures

Place Temperature

Nearby Weather Stations